sensor_id;sensor_type;location;lat;lon;timestamp;temperature;humidity
435;DHT22;204;48.942;9.256;2024-01-06T00:01:29;5.50;1.00
435;DHT22;204;48.942;9.256;2024-01-06T00:03:55;5.50;1.00
435;DHT22;204;48.942;9.256;2024-01-06T00:06:20;5.50;1.00
435;DHT22;204;48.942;9.256;2024-01-06T00:08:47;5.50;1.00
435;DHT22;204;48.942;9.256;2024-01-06T00:11:16;5.50;1.00
435;DHT22;204;48.942;9.256;2024-01-06T00:13:42;5.50;1.00
435;DHT22;204;48.942;9.256;2024-01-06T00:16:07;5.50;1.00
435;DHT22;204;48.942;9.256;2024-01-06T00:18:33;5.50;1.00
435;DHT22;204;48.942;9.256;2024-01-06T00:20:59;5.50;1.00
435;DHT22;204;48.942;9.256;2024-01-06T00:23:24;5.50;1.00
435;DHT22;204;48.942;9.256;2024-01-06T00:25:50;5.50;1.00
435;DHT22;204;48.942;9.256;2024-01-06T00:28:15;5.50;1.00
435;DHT22;204;48.942;9.256;2024-01-06T00:30:41;5.50;1.00
435;DHT22;204;48.942;9.256;2024-01-06T00:33:06;5.50;1.00
435;DHT22;204;48.942;9.256;2024-01-06T00:35:32;5.50;1.00
435;DHT22;204;48.942;9.256;2024-01-06T00:37:58;5.50;1.00
435;DHT22;204;48.942;9.256;2024-01-06T00:40:25;5.50;1.00
435;DHT22;204;48.942;9.256;2024-01-06T00:42:51;5.50;1.00
435;DHT22;204;48.942;9.256;2024-01-06T00:45:16;5.50;1.00
435;DHT22;204;48.942;9.256;2024-01-06T00:47:43;5.50;1.00
435;DHT22;204;48.942;9.256;2024-01-06T00:50:08;5.50;1.00
435;DHT22;204;48.942;9.256;2024-01-06T00:52:34;5.50;1.00
435;DHT22;204;48.942;9.256;2024-01-06T00:54:59;5.50;1.00
435;DHT22;204;48.942;9.256;2024-01-06T00:57:25;5.50;1.00
435;DHT22;204;48.942;9.256;2024-01-06T00:59:51;5.60;1.00
435;DHT22;204;48.942;9.256;2024-01-06T01:02:16;5.60;1.00
435;DHT22;204;48.942;9.256;2024-01-06T01:04:42;5.60;1.00
435;DHT22;204;48.942;9.256;2024-01-06T01:07:08;5.60;1.00
435;DHT22;204;48.942;9.256;2024-01-06T01:09:34;5.70;1.00
435;DHT22;204;48.942;9.256;2024-01-06T01:12:00;5.70;1.00
435;DHT22;204;48.942;9.256;2024-01-06T01:14:25;5.70;1.00
435;DHT22;204;48.942;9.256;2024-01-06T01:16:51;5.70;1.00
435;DHT22;204;48.942;9.256;2024-01-06T01:19:17;5.70;1.00
435;DHT22;204;48.942;9.256;2024-01-06T01:21:42;5.70;1.00
435;DHT22;204;48.942;9.256;2024-01-06T01:24:08;5.70;1.00
435;DHT22;204;48.942;9.256;2024-01-06T01:26:33;5.70;1.00
435;DHT22;204;48.942;9.256;2024-01-06T01:28:59;5.70;1.00
435;DHT22;204;48.942;9.256;2024-01-06T01:31:24;5.70;1.00
435;DHT22;204;48.942;9.256;2024-01-06T01:33:50;5.80;1.00
435;DHT22;204;48.942;9.256;2024-01-06T01:36:15;5.80;1.00
435;DHT22;204;48.942;9.256;2024-01-06T01:38:43;5.80;1.00
435;DHT22;204;48.942;9.256;2024-01-06T01:41:09;5.80;1.00
435;DHT22;204;48.942;9.256;2024-01-06T01:43:34;5.80;1.00
435;DHT22;204;48.942;9.256;2024-01-06T01:46:00;5.80;1.00
435;DHT22;204;48.942;9.256;2024-01-06T01:48:27;5.80;1.00
435;DHT22;204;48.942;9.256;2024-01-06T01:50:56;5.80;1.00
435;DHT22;204;48.942;9.256;2024-01-06T01:53:22;5.80;1.00
435;DHT22;204;48.942;9.256;2024-01-06T01:55:49;5.80;1.00
435;DHT22;204;48.942;9.256;2024-01-06T01:58:16;5.80;1.00
435;DHT22;204;48.942;9.256;2024-01-06T02:00:41;5.80;1.00
435;DHT22;204;48.942;9.256;2024-01-06T02:03:07;5.80;1.00
435;DHT22;204;48.942;9.256;2024-01-06T02:05:34;5.80;1.00
435;DHT22;204;48.942;9.256;2024-01-06T02:08:00;5.80;1.00
435;DHT22;204;48.942;9.256;2024-01-06T02:10:25;5.80;1.00
435;DHT22;204;48.942;9.256;2024-01-06T02:12:51;5.80;1.00
435;DHT22;204;48.942;9.256;2024-01-06T02:15:17;5.80;1.00
435;DHT22;204;48.942;9.256;2024-01-06T02:17:43;5.80;1.00
435;DHT22;204;48.942;9.256;2024-01-06T02:20:10;5.80;1.00
435;DHT22;204;48.942;9.256;2024-01-06T02:22:36;5.80;1.00
435;DHT22;204;48.942;9.256;2024-01-06T02:25:03;5.80;1.00
435;DHT22;204;48.942;9.256;2024-01-06T02:27:32;5.80;1.00
435;DHT22;204;48.942;9.256;2024-01-06T02:29:58;5.80;1.00
435;DHT22;204;48.942;9.256;2024-01-06T02:32:24;5.70;1.00
435;DHT22;204;48.942;9.256;2024-01-06T02:34:49;5.70;1.00
435;DHT22;204;48.942;9.256;2024-01-06T02:37:15;5.70;1.00
435;DHT22;204;48.942;9.256;2024-01-06T02:39:40;5.60;1.00
435;DHT22;204;48.942;9.256;2024-01-06T02:42:06;5.60;1.00
435;DHT22;204;48.942;9.256;2024-01-06T02:44:32;5.60;1.00
435;DHT22;204;48.942;9.256;2024-01-06T02:46:57;5.70;1.00
435;DHT22;204;48.942;9.256;2024-01-06T02:49:23;5.70;1.00
435;DHT22;204;48.942;9.256;2024-01-06T02:51:48;5.70;1.00
435;DHT22;204;48.942;9.256;2024-01-06T02:54:14;5.70;1.00
435;DHT22;204;48.942;9.256;2024-01-06T02:56:39;5.70;1.00
435;DHT22;204;48.942;9.256;2024-01-06T02:59:05;5.70;1.00
435;DHT22;204;48.942;9.256;2024-01-06T03:01:31;5.70;1.00
435;DHT22;204;48.942;9.256;2024-01-06T03:03:57;5.70;1.00
435;DHT22;204;48.942;9.256;2024-01-06T03:06:23;5.70;1.00
435;DHT22;204;48.942;9.256;2024-01-06T03:08:48;5.70;1.00
435;DHT22;204;48.942;9.256;2024-01-06T03:11:14;5.60;1.00
435;DHT22;204;48.942;9.256;2024-01-06T03:13:40;5.60;1.00
435;DHT22;204;48.942;9.256;2024-01-06T03:16:05;5.60;1.00
435;DHT22;204;48.942;9.256;2024-01-06T03:18:31;5.60;1.00
435;DHT22;204;48.942;9.256;2024-01-06T03:20:56;5.60;1.00
435;DHT22;204;48.942;9.256;2024-01-06T03:23:22;5.60;1.00
435;DHT22;204;48.942;9.256;2024-01-06T03:25:48;5.50;1.00
435;DHT22;204;48.942;9.256;2024-01-06T03:28:13;5.50;1.00
435;DHT22;204;48.942;9.256;2024-01-06T03:30:39;5.50;1.00
435;DHT22;204;48.942;9.256;2024-01-06T03:33:06;5.50;1.00
435;DHT22;204;48.942;9.256;2024-01-06T03:35:31;5.50;1.00
435;DHT22;204;48.942;9.256;2024-01-06T03:37:57;5.50;1.00
435;DHT22;204;48.942;9.256;2024-01-06T03:40:22;5.40;1.00
435;DHT22;204;48.942;9.256;2024-01-06T03:42:48;5.40;1.00
435;DHT22;204;48.942;9.256;2024-01-06T03:45:14;5.50;1.00
435;DHT22;204;48.942;9.256;2024-01-06T03:47:39;5.40;1.00
435;DHT22;204;48.942;9.256;2024-01-06T03:50:05;5.50;1.00
435;DHT22;204;48.942;9.256;2024-01-06T03:52:31;5.50;1.00
435;DHT22;204;48.942;9.256;2024-01-06T03:54:56;5.50;1.00
435;DHT22;204;48.942;9.256;2024-01-06T03:57:22;5.50;1.00
435;DHT22;204;48.942;9.256;2024-01-06T03:59:47;5.50;1.00
435;DHT22;204;48.942;9.256;2024-01-06T04:02:13;5.60;1.00
435;DHT22;204;48.942;9.256;2024-01-06T04:04:39;5.60;1.00
435;DHT22;204;48.942;9.256;2024-01-06T04:07:04;5.60;1.00
435;DHT22;204;48.942;9.256;2024-01-06T04:09:31;5.60;1.00
435;DHT22;204;48.942;9.256;2024-01-06T04:11:57;5.70;1.00
435;DHT22;204;48.942;9.256;2024-01-06T04:14:23;5.70;1.00
435;DHT22;204;48.942;9.256;2024-01-06T04:16:48;5.70;1.00
435;DHT22;204;48.942;9.256;2024-01-06T04:19:14;5.70;1.00
435;DHT22;204;48.942;9.256;2024-01-06T04:21:40;5.70;1.00
435;DHT22;204;48.942;9.256;2024-01-06T04:24:06;5.70;1.00
435;DHT22;204;48.942;9.256;2024-01-06T04:26:31;5.80;1.00
435;DHT22;204;48.942;9.256;2024-01-06T04:28:57;5.80;1.00
435;DHT22;204;48.942;9.256;2024-01-06T04:31:22;5.80;1.00
435;DHT22;204;48.942;9.256;2024-01-06T04:33:48;5.80;1.00
435;DHT22;204;48.942;9.256;2024-01-06T04:36:13;5.80;1.00
435;DHT22;204;48.942;9.256;2024-01-06T04:38:39;5.80;1.00
435;DHT22;204;48.942;9.256;2024-01-06T04:41:05;5.80;1.00
435;DHT22;204;48.942;9.256;2024-01-06T04:43:30;5.80;1.00
435;DHT22;204;48.942;9.256;2024-01-06T04:45:56;5.80;1.00
435;DHT22;204;48.942;9.256;2024-01-06T04:48:23;5.70;1.00
435;DHT22;204;48.942;9.256;2024-01-06T04:50:48;5.70;1.00
435;DHT22;204;48.942;9.256;2024-01-06T04:53:14;5.70;1.00
435;DHT22;204;48.942;9.256;2024-01-06T04:55:39;5.70;1.00
435;DHT22;204;48.942;9.256;2024-01-06T04:58:05;5.60;1.00
435;DHT22;204;48.942;9.256;2024-01-06T05:00:30;5.60;1.00
435;DHT22;204;48.942;9.256;2024-01-06T05:02:56;5.60;1.00
435;DHT22;204;48.942;9.256;2024-01-06T05:05:21;5.70;1.00
435;DHT22;204;48.942;9.256;2024-01-06T05:07:47;5.70;1.00
435;DHT22;204;48.942;9.256;2024-01-06T05:10:13;5.70;1.00
435;DHT22;204;48.942;9.256;2024-01-06T05:12:38;5.70;1.00
435;DHT22;204;48.942;9.256;2024-01-06T05:15:04;5.70;1.00
435;DHT22;204;48.942;9.256;2024-01-06T05:17:30;5.60;1.00
435;DHT22;204;48.942;9.256;2024-01-06T05:19:56;5.60;1.00
435;DHT22;204;48.942;9.256;2024-01-06T05:22:21;5.60;1.00
435;DHT22;204;48.942;9.256;2024-01-06T05:24:47;5.70;1.00
435;DHT22;204;48.942;9.256;2024-01-06T05:27:13;5.60;1.00
435;DHT22;204;48.942;9.256;2024-01-06T05:29:38;5.70;1.00
435;DHT22;204;48.942;9.256;2024-01-06T05:32:04;5.70;1.00
435;DHT22;204;48.942;9.256;2024-01-06T05:34:29;5.70;1.00
435;DHT22;204;48.942;9.256;2024-01-06T05:36:55;5.70;1.00
435;DHT22;204;48.942;9.256;2024-01-06T05:39:20;5.60;1.00
435;DHT22;204;48.942;9.256;2024-01-06T05:41:46;5.60;1.00
435;DHT22;204;48.942;9.256;2024-01-06T05:44:11;5.60;1.00
435;DHT22;204;48.942;9.256;2024-01-06T05:46:37;5.60;1.00
435;DHT22;204;48.942;9.256;2024-01-06T05:49:03;5.60;1.00
435;DHT22;204;48.942;9.256;2024-01-06T05:51:29;5.60;1.00
435;DHT22;204;48.942;9.256;2024-01-06T05:53:55;5.60;1.00
435;DHT22;204;48.942;9.256;2024-01-06T05:56:27;5.60;1.00
435;DHT22;204;48.942;9.256;2024-01-06T05:58:53;5.60;1.00
435;DHT22;204;48.942;9.256;2024-01-06T06:01:20;5.60;1.00
435;DHT22;204;48.942;9.256;2024-01-06T06:03:48;5.60;1.00
435;DHT22;204;48.942;9.256;2024-01-06T06:06:15;5.60;1.00
435;DHT22;204;48.942;9.256;2024-01-06T06:08:42;5.60;1.00
435;DHT22;204;48.942;9.256;2024-01-06T06:11:07;5.60;1.00
435;DHT22;204;48.942;9.256;2024-01-06T06:13:40;5.60;1.00
435;DHT22;204;48.942;9.256;2024-01-06T06:16:06;5.60;1.00
435;DHT22;204;48.942;9.256;2024-01-06T06:18:32;5.60;1.00
435;DHT22;204;48.942;9.256;2024-01-06T06:20:59;5.60;1.00
435;DHT22;204;48.942;9.256;2024-01-06T06:23:25;5.50;1.00
435;DHT22;204;48.942;9.256;2024-01-06T06:25:51;5.50;1.00
435;DHT22;204;48.942;9.256;2024-01-06T06:28:16;5.50;1.00
435;DHT22;204;48.942;9.256;2024-01-06T06:30:42;5.50;1.00
435;DHT22;204;48.942;9.256;2024-01-06T06:33:08;5.50;1.00
435;DHT22;204;48.942;9.256;2024-01-06T06:35:34;5.50;1.00
435;DHT22;204;48.942;9.256;2024-01-06T06:37:59;5.50;1.00
435;DHT22;204;48.942;9.256;2024-01-06T06:40:25;5.60;1.00
435;DHT22;204;48.942;9.256;2024-01-06T06:42:50;5.70;1.00
435;DHT22;204;48.942;9.256;2024-01-06T06:45:16;5.70;1.00
435;DHT22;204;48.942;9.256;2024-01-06T06:47:41;5.80;1.00
435;DHT22;204;48.942;9.256;2024-01-06T06:50:07;5.80;1.00
435;DHT22;204;48.942;9.256;2024-01-06T06:52:33;5.80;1.00
435;DHT22;204;48.942;9.256;2024-01-06T06:54:58;5.90;1.00
435;DHT22;204;48.942;9.256;2024-01-06T06:57:24;5.90;1.00
435;DHT22;204;48.942;9.256;2024-01-06T06:59:49;6.00;1.00
435;DHT22;204;48.942;9.256;2024-01-06T07:02:15;6.00;1.00
435;DHT22;204;48.942;9.256;2024-01-06T07:04:40;6.00;1.00
435;DHT22;204;48.942;9.256;2024-01-06T07:07:06;6.10;1.00
435;DHT22;204;48.942;9.256;2024-01-06T07:09:32;6.10;1.00
435;DHT22;204;48.942;9.256;2024-01-06T07:11:57;6.20;1.00
435;DHT22;204;48.942;9.256;2024-01-06T07:14:23;6.20;1.00
435;DHT22;204;48.942;9.256;2024-01-06T07:16:48;6.30;1.00
435;DHT22;204;48.942;9.256;2024-01-06T07:19:14;6.30;1.00
435;DHT22;204;48.942;9.256;2024-01-06T07:21:40;6.30;1.00
435;DHT22;204;48.942;9.256;2024-01-06T07:24:06;6.30;1.00
435;DHT22;204;48.942;9.256;2024-01-06T07:26:31;6.40;1.00
435;DHT22;204;48.942;9.256;2024-01-06T07:28:57;6.40;1.00
435;DHT22;204;48.942;9.256;2024-01-06T07:31:23;6.40;1.00
435;DHT22;204;48.942;9.256;2024-01-06T07:33:48;6.50;1.00
435;DHT22;204;48.942;9.256;2024-01-06T07:36:14;6.50;1.00
435;DHT22;204;48.942;9.256;2024-01-06T07:38:39;6.50;1.00
435;DHT22;204;48.942;9.256;2024-01-06T07:41:06;6.50;1.00
435;DHT22;204;48.942;9.256;2024-01-06T07:43:32;6.50;1.00
435;DHT22;204;48.942;9.256;2024-01-06T07:45:58;6.60;1.00
435;DHT22;204;48.942;9.256;2024-01-06T07:48:23;6.60;1.00
435;DHT22;204;48.942;9.256;2024-01-06T07:50:49;6.60;1.00
435;DHT22;204;48.942;9.256;2024-01-06T07:53:15;6.70;1.00
435;DHT22;204;48.942;9.256;2024-01-06T07:55:40;6.70;1.00
435;DHT22;204;48.942;9.256;2024-01-06T07:58:06;6.80;1.00
435;DHT22;204;48.942;9.256;2024-01-06T08:00:32;6.80;1.00
435;DHT22;204;48.942;9.256;2024-01-06T08:02:57;6.80;1.00
435;DHT22;204;48.942;9.256;2024-01-06T08:05:23;6.90;1.00
435;DHT22;204;48.942;9.256;2024-01-06T08:07:50;6.90;1.00
435;DHT22;204;48.942;9.256;2024-01-06T08:10:16;7.00;1.00
435;DHT22;204;48.942;9.256;2024-01-06T08:12:42;7.00;1.00
435;DHT22;204;48.942;9.256;2024-01-06T08:15:08;7.00;1.00
435;DHT22;204;48.942;9.256;2024-01-06T08:17:35;7.00;1.00
435;DHT22;204;48.942;9.256;2024-01-06T08:20:01;7.10;1.00
435;DHT22;204;48.942;9.256;2024-01-06T08:22:26;7.10;1.00
435;DHT22;204;48.942;9.256;2024-01-06T08:24:52;7.10;1.00
435;DHT22;204;48.942;9.256;2024-01-06T08:27:17;7.20;1.00
435;DHT22;204;48.942;9.256;2024-01-06T08:29:43;7.20;1.00
435;DHT22;204;48.942;9.256;2024-01-06T08:32:09;7.20;1.00
435;DHT22;204;48.942;9.256;2024-01-06T08:34:35;7.20;1.00
435;DHT22;204;48.942;9.256;2024-01-06T08:37:01;7.20;1.00
435;DHT22;204;48.942;9.256;2024-01-06T08:39:28;7.20;1.00
435;DHT22;204;48.942;9.256;2024-01-06T08:41:54;7.20;1.00
435;DHT22;204;48.942;9.256;2024-01-06T08:44:20;7.20;1.00
435;DHT22;204;48.942;9.256;2024-01-06T08:46:45;7.10;1.00
435;DHT22;204;48.942;9.256;2024-01-06T08:49:11;7.10;1.00
435;DHT22;204;48.942;9.256;2024-01-06T08:51:39;7.10;1.00
435;DHT22;204;48.942;9.256;2024-01-06T08:54:06;7.20;1.00
435;DHT22;204;48.942;9.256;2024-01-06T08:56:33;7.30;1.00
435;DHT22;204;48.942;9.256;2024-01-06T08:58:59;7.30;1.00
435;DHT22;204;48.942;9.256;2024-01-06T09:01:24;7.30;1.00
435;DHT22;204;48.942;9.256;2024-01-06T09:03:50;7.40;1.00
435;DHT22;204;48.942;9.256;2024-01-06T09:06:16;7.40;1.00
435;DHT22;204;48.942;9.256;2024-01-06T09:08:41;7.50;1.00
435;DHT22;204;48.942;9.256;2024-01-06T09:11:07;7.60;1.00
435;DHT22;204;48.942;9.256;2024-01-06T09:13:33;7.70;1.00
435;DHT22;204;48.942;9.256;2024-01-06T09:15:59;7.80;1.00
435;DHT22;204;48.942;9.256;2024-01-06T09:18:26;8.00;1.00
435;DHT22;204;48.942;9.256;2024-01-06T09:20:52;8.20;1.00
435;DHT22;204;48.942;9.256;2024-01-06T09:23:17;8.40;1.00
435;DHT22;204;48.942;9.256;2024-01-06T09:25:43;8.60;1.00
435;DHT22;204;48.942;9.256;2024-01-06T09:28:08;8.80;1.00
435;DHT22;204;48.942;9.256;2024-01-06T09:30:34;8.80;1.00
435;DHT22;204;48.942;9.256;2024-01-06T09:32:59;8.90;1.00
435;DHT22;204;48.942;9.256;2024-01-06T09:35:25;8.90;1.00
435;DHT22;204;48.942;9.256;2024-01-06T09:37:50;8.90;1.00
435;DHT22;204;48.942;9.256;2024-01-06T09:40:22;8.80;1.00
435;DHT22;204;48.942;9.256;2024-01-06T09:42:49;8.80;1.00
435;DHT22;204;48.942;9.256;2024-01-06T09:45:15;8.70;1.00
435;DHT22;204;48.942;9.256;2024-01-06T09:47:41;8.60;1.00
435;DHT22;204;48.942;9.256;2024-01-06T09:50:08;8.60;1.00
435;DHT22;204;48.942;9.256;2024-01-06T09:52:39;8.50;1.00
435;DHT22;204;48.942;9.256;2024-01-06T09:55:11;8.40;1.00
435;DHT22;204;48.942;9.256;2024-01-06T09:57:38;8.40;1.00
435;DHT22;204;48.942;9.256;2024-01-06T10:00:07;8.50;1.00
435;DHT22;204;48.942;9.256;2024-01-06T10:02:34;8.50;1.00
435;DHT22;204;48.942;9.256;2024-01-06T10:04:59;8.50;1.00
435;DHT22;204;48.942;9.256;2024-01-06T10:07:28;8.50;1.00
435;DHT22;204;48.942;9.256;2024-01-06T10:09:57;8.50;1.00
435;DHT22;204;48.942;9.256;2024-01-06T10:12:25;8.50;1.00
435;DHT22;204;48.942;9.256;2024-01-06T10:14:52;8.50;1.00
435;DHT22;204;48.942;9.256;2024-01-06T10:17:17;8.50;1.00
435;DHT22;204;48.942;9.256;2024-01-06T10:19:46;8.50;1.00
435;DHT22;204;48.942;9.256;2024-01-06T10:22:13;8.50;1.00
435;DHT22;204;48.942;9.256;2024-01-06T10:24:39;8.50;1.00
435;DHT22;204;48.942;9.256;2024-01-06T10:27:06;8.50;1.00
435;DHT22;204;48.942;9.256;2024-01-06T10:29:32;8.50;1.00
435;DHT22;204;48.942;9.256;2024-01-06T10:31:58;8.60;1.00
435;DHT22;204;48.942;9.256;2024-01-06T10:34:24;8.60;1.00
435;DHT22;204;48.942;9.256;2024-01-06T10:36:50;8.60;1.00
435;DHT22;204;48.942;9.256;2024-01-06T10:39:20;8.50;1.00
435;DHT22;204;48.942;9.256;2024-01-06T10:41:46;8.50;1.00
435;DHT22;204;48.942;9.256;2024-01-06T10:44:14;8.50;1.00
435;DHT22;204;48.942;9.256;2024-01-06T10:46:41;8.50;1.00
435;DHT22;204;48.942;9.256;2024-01-06T10:49:08;8.50;1.00
435;DHT22;204;48.942;9.256;2024-01-06T10:51:38;8.40;1.00
435;DHT22;204;48.942;9.256;2024-01-06T10:54:05;8.50;1.00
435;DHT22;204;48.942;9.256;2024-01-06T10:56:36;8.40;1.00
435;DHT22;204;48.942;9.256;2024-01-06T10:59:03;8.50;1.00
435;DHT22;204;48.942;9.256;2024-01-06T11:01:30;8.50;1.00
435;DHT22;204;48.942;9.256;2024-01-06T11:03:57;8.50;1.00
435;DHT22;204;48.942;9.256;2024-01-06T11:06:23;8.50;1.00
435;DHT22;204;48.942;9.256;2024-01-06T11:09:04;8.50;1.00
435;DHT22;204;48.942;9.256;2024-01-06T11:11:32;8.50;1.00
435;DHT22;204;48.942;9.256;2024-01-06T11:14:20;8.40;1.00
435;DHT22;204;48.942;9.256;2024-01-06T11:16:46;8.40;1.00
435;DHT22;204;48.942;9.256;2024-01-06T11:24:54;8.40;1.00
435;DHT22;204;48.942;9.256;2024-01-06T11:27:28;8.30;1.00
435;DHT22;204;48.942;9.256;2024-01-06T11:30:01;8.30;1.00
435;DHT22;204;48.942;9.256;2024-01-06T11:35:12;8.20;1.00
435;DHT22;204;48.942;9.256;2024-01-06T11:40:16;8.40;1.00
435;DHT22;204;48.942;9.256;2024-01-06T11:42:48;8.40;1.00
435;DHT22;204;48.942;9.256;2024-01-06T11:45:21;8.30;1.00
435;DHT22;204;48.942;9.256;2024-01-06T11:47:48;8.30;1.00
435;DHT22;204;48.942;9.256;2024-01-06T11:50:16;8.40;1.00
435;DHT22;204;48.942;9.256;2024-01-06T11:52:42;8.40;1.00
435;DHT22;204;48.942;9.256;2024-01-06T11:55:08;8.40;1.00
435;DHT22;204;48.942;9.256;2024-01-06T11:57:34;8.30;1.00
435;DHT22;204;48.942;9.256;2024-01-06T12:00:00;8.30;1.00
435;DHT22;204;48.942;9.256;2024-01-06T12:02:25;8.30;1.00
435;DHT22;204;48.942;9.256;2024-01-06T12:04:52;8.20;1.00
435;DHT22;204;48.942;9.256;2024-01-06T12:07:19;8.20;1.00
435;DHT22;204;48.942;9.256;2024-01-06T12:09:46;8.20;1.00
435;DHT22;204;48.942;9.256;2024-01-06T12:12:15;8.30;1.00
435;DHT22;204;48.942;9.256;2024-01-06T12:14:41;8.40;1.00
435;DHT22;204;48.942;9.256;2024-01-06T12:17:09;8.40;1.00
435;DHT22;204;48.942;9.256;2024-01-06T12:19:35;8.50;1.00
435;DHT22;204;48.942;9.256;2024-01-06T12:22:01;8.60;1.00
435;DHT22;204;48.942;9.256;2024-01-06T12:24:28;8.60;1.00
435;DHT22;204;48.942;9.256;2024-01-06T12:26:57;8.60;1.00
435;DHT22;204;48.942;9.256;2024-01-06T12:29:26;8.50;1.00
435;DHT22;204;48.942;9.256;2024-01-06T12:31:55;8.40;1.00
435;DHT22;204;48.942;9.256;2024-01-06T12:34:21;8.40;1.00
435;DHT22;204;48.942;9.256;2024-01-06T12:36:47;8.50;1.00
435;DHT22;204;48.942;9.256;2024-01-06T12:39:13;8.40;1.00
435;DHT22;204;48.942;9.256;2024-01-06T12:41:40;8.50;1.00
435;DHT22;204;48.942;9.256;2024-01-06T12:44:06;8.50;1.00
435;DHT22;204;48.942;9.256;2024-01-06T12:46:33;8.40;1.00
435;DHT22;204;48.942;9.256;2024-01-06T12:48:58;8.40;1.00
435;DHT22;204;48.942;9.256;2024-01-06T12:51:24;8.40;1.00
435;DHT22;204;48.942;9.256;2024-01-06T12:53:50;8.40;1.00
435;DHT22;204;48.942;9.256;2024-01-06T12:56:16;8.40;1.00
435;DHT22;204;48.942;9.256;2024-01-06T12:58:42;8.40;1.00
435;DHT22;204;48.942;9.256;2024-01-06T13:01:09;8.40;1.00
435;DHT22;204;48.942;9.256;2024-01-06T13:03:35;8.50;1.00
435;DHT22;204;48.942;9.256;2024-01-06T13:06:01;8.60;1.00
435;DHT22;204;48.942;9.256;2024-01-06T13:08:27;8.60;1.00
435;DHT22;204;48.942;9.256;2024-01-06T13:10:56;8.70;1.00
435;DHT22;204;48.942;9.256;2024-01-06T13:13:22;8.70;1.00
435;DHT22;204;48.942;9.256;2024-01-06T13:15:48;8.60;1.00
435;DHT22;204;48.942;9.256;2024-01-06T13:18:13;8.60;1.00
435;DHT22;204;48.942;9.256;2024-01-06T13:20:40;8.50;1.00
435;DHT22;204;48.942;9.256;2024-01-06T13:23:09;8.50;1.00
435;DHT22;204;48.942;9.256;2024-01-06T13:25:35;8.40;1.00
435;DHT22;204;48.942;9.256;2024-01-06T13:28:01;8.30;1.00
435;DHT22;204;48.942;9.256;2024-01-06T13:30:26;8.20;1.00
435;DHT22;204;48.942;9.256;2024-01-06T13:32:53;8.20;1.00
435;DHT22;204;48.942;9.256;2024-01-06T13:35:20;8.20;1.00
435;DHT22;204;48.942;9.256;2024-01-06T13:37:46;8.20;1.00
435;DHT22;204;48.942;9.256;2024-01-06T13:40:14;8.20;1.00
435;DHT22;204;48.942;9.256;2024-01-06T13:42:40;8.20;1.00
435;DHT22;204;48.942;9.256;2024-01-06T13:45:06;8.20;1.00
435;DHT22;204;48.942;9.256;2024-01-06T13:47:32;8.20;1.00
435;DHT22;204;48.942;9.256;2024-01-06T13:49:58;8.20;1.00
435;DHT22;204;48.942;9.256;2024-01-06T13:52:24;8.30;1.00
435;DHT22;204;48.942;9.256;2024-01-06T13:54:51;8.40;1.00
435;DHT22;204;48.942;9.256;2024-01-06T13:57:17;8.40;1.00
435;DHT22;204;48.942;9.256;2024-01-06T13:59:42;8.40;1.00
435;DHT22;204;48.942;9.256;2024-01-06T14:02:11;8.40;1.00
435;DHT22;204;48.942;9.256;2024-01-06T14:04:37;8.30;1.00
435;DHT22;204;48.942;9.256;2024-01-06T14:07:02;8.30;1.00
435;DHT22;204;48.942;9.256;2024-01-06T14:09:28;8.20;1.00
435;DHT22;204;48.942;9.256;2024-01-06T14:11:53;8.20;1.00
435;DHT22;204;48.942;9.256;2024-01-06T14:14:20;8.20;1.00
435;DHT22;204;48.942;9.256;2024-01-06T14:16:46;8.20;1.00
435;DHT22;204;48.942;9.256;2024-01-06T14:19:12;8.10;1.00
435;DHT22;204;48.942;9.256;2024-01-06T14:21:38;8.10;1.00
435;DHT22;204;48.942;9.256;2024-01-06T14:24:04;8.10;1.00
435;DHT22;204;48.942;9.256;2024-01-06T14:26:31;8.10;1.00
435;DHT22;204;48.942;9.256;2024-01-06T14:28:57;8.10;1.00
435;DHT22;204;48.942;9.256;2024-01-06T14:31:24;8.20;1.00
435;DHT22;204;48.942;9.256;2024-01-06T14:33:50;8.20;1.00
435;DHT22;204;48.942;9.256;2024-01-06T14:36:15;8.20;1.00
435;DHT22;204;48.942;9.256;2024-01-06T14:38:41;8.10;1.00
435;DHT22;204;48.942;9.256;2024-01-06T14:41:07;8.10;1.00
435;DHT22;204;48.942;9.256;2024-01-06T14:43:32;8.00;1.00
435;DHT22;204;48.942;9.256;2024-01-06T14:45:58;8.00;1.00
435;DHT22;204;48.942;9.256;2024-01-06T14:48:23;8.10;1.00
435;DHT22;204;48.942;9.256;2024-01-06T14:50:49;8.00;1.00
435;DHT22;204;48.942;9.256;2024-01-06T14:53:15;8.00;1.00
435;DHT22;204;48.942;9.256;2024-01-06T14:55:41;8.00;1.00
435;DHT22;204;48.942;9.256;2024-01-06T14:58:07;8.00;1.00
435;DHT22;204;48.942;9.256;2024-01-06T15:00:34;8.00;1.00
435;DHT22;204;48.942;9.256;2024-01-06T15:03:00;8.00;1.00
435;DHT22;204;48.942;9.256;2024-01-06T15:05:26;8.00;1.00
435;DHT22;204;48.942;9.256;2024-01-06T15:07:55;8.00;1.00
435;DHT22;204;48.942;9.256;2024-01-06T15:10:20;8.00;1.00
435;DHT22;204;48.942;9.256;2024-01-06T15:12:46;8.00;1.00
435;DHT22;204;48.942;9.256;2024-01-06T15:15:11;7.90;1.00
435;DHT22;204;48.942;9.256;2024-01-06T15:17:37;8.00;1.00
435;DHT22;204;48.942;9.256;2024-01-06T15:20:04;7.90;1.00
435;DHT22;204;48.942;9.256;2024-01-06T15:22:30;7.90;1.00
435;DHT22;204;48.942;9.256;2024-01-06T15:24:56;7.90;1.00
435;DHT22;204;48.942;9.256;2024-01-06T15:27:22;8.00;1.00
435;DHT22;204;48.942;9.256;2024-01-06T15:29:48;7.90;1.00
435;DHT22;204;48.942;9.256;2024-01-06T15:32:13;8.00;1.00
435;DHT22;204;48.942;9.256;2024-01-06T15:34:39;8.00;1.00
435;DHT22;204;48.942;9.256;2024-01-06T15:37:04;8.00;1.00
435;DHT22;204;48.942;9.256;2024-01-06T15:39:30;8.10;1.00
435;DHT22;204;48.942;9.256;2024-01-06T15:41:56;8.10;1.00
435;DHT22;204;48.942;9.256;2024-01-06T15:44:21;8.10;1.00
435;DHT22;204;48.942;9.256;2024-01-06T15:46:47;8.10;1.00
435;DHT22;204;48.942;9.256;2024-01-06T15:49:13;8.10;1.00
435;DHT22;204;48.942;9.256;2024-01-06T15:51:38;8.10;1.00
435;DHT22;204;48.942;9.256;2024-01-06T15:54:04;8.10;1.00
435;DHT22;204;48.942;9.256;2024-01-06T15:56:30;8.00;1.00
435;DHT22;204;48.942;9.256;2024-01-06T15:58:55;8.00;1.00
435;DHT22;204;48.942;9.256;2024-01-06T16:01:22;8.00;1.00
435;DHT22;204;48.942;9.256;2024-01-06T16:03:48;7.90;1.00
435;DHT22;204;48.942;9.256;2024-01-06T16:06:14;8.00;1.00
435;DHT22;204;48.942;9.256;2024-01-06T16:08:39;7.90;1.00
435;DHT22;204;48.942;9.256;2024-01-06T16:11:05;7.90;1.00
435;DHT22;204;48.942;9.256;2024-01-06T16:13:30;7.90;1.00
435;DHT22;204;48.942;9.256;2024-01-06T16:15:56;7.90;1.00
435;DHT22;204;48.942;9.256;2024-01-06T16:18:22;7.90;1.00
435;DHT22;204;48.942;9.256;2024-01-06T16:20:48;7.80;1.00
435;DHT22;204;48.942;9.256;2024-01-06T16:23:13;7.70;1.00
435;DHT22;204;48.942;9.256;2024-01-06T16:25:42;7.70;1.00
435;DHT22;204;48.942;9.256;2024-01-06T16:28:08;7.70;1.00
435;DHT22;204;48.942;9.256;2024-01-06T16:30:38;7.70;1.00
435;DHT22;204;48.942;9.256;2024-01-06T16:33:04;7.60;1.00
435;DHT22;204;48.942;9.256;2024-01-06T16:35:30;7.60;1.00
435;DHT22;204;48.942;9.256;2024-01-06T16:37:56;7.60;1.00
435;DHT22;204;48.942;9.256;2024-01-06T16:40:23;7.60;1.00
435;DHT22;204;48.942;9.256;2024-01-06T16:42:49;7.60;1.00
435;DHT22;204;48.942;9.256;2024-01-06T16:45:17;7.60;1.00
435;DHT22;204;48.942;9.256;2024-01-06T16:47:44;7.60;1.00
435;DHT22;204;48.942;9.256;2024-01-06T16:50:10;7.60;1.00
435;DHT22;204;48.942;9.256;2024-01-06T16:52:37;7.60;1.00
435;DHT22;204;48.942;9.256;2024-01-06T16:55:04;7.60;1.00
435;DHT22;204;48.942;9.256;2024-01-06T16:57:30;7.50;1.00
435;DHT22;204;48.942;9.256;2024-01-06T16:59:57;7.50;1.00
435;DHT22;204;48.942;9.256;2024-01-06T17:02:23;7.40;1.00
435;DHT22;204;48.942;9.256;2024-01-06T17:04:50;7.40;1.00
435;DHT22;204;48.942;9.256;2024-01-06T17:07:16;7.40;1.00
435;DHT22;204;48.942;9.256;2024-01-06T17:09:42;7.40;1.00
435;DHT22;204;48.942;9.256;2024-01-06T17:12:13;7.40;1.00